sensor_id;sensor_type;location;lat;lon;timestamp;P1;durP1;ratioP1;P2;durP2;ratioP2
27939;SDS011;15275;51.716;14.324;2023-07-22T00:01:02;1.83;;;1.63;;
27939;SDS011;15275;51.716;14.324;2023-07-22T00:03:28;2.80;;;1.77;;
27939;SDS011;15275;51.716;14.324;2023-07-22T00:06:07;2.58;;;1.38;;
27939;SDS011;15275;51.716;14.324;2023-07-22T00:08:35;4.20;;;1.88;;
27939;SDS011;15275;51.716;14.324;2023-07-22T00:11:02;2.20;;;1.65;;
27939;SDS011;15275;51.716;14.324;2023-07-22T00:13:30;2.10;;;1.80;;
27939;SDS011;15275;51.716;14.324;2023-07-22T00:15:57;1.52;;;1.42;;
27939;SDS011;15275;51.716;14.324;2023-07-22T00:18:27;2.15;;;1.55;;
27939;SDS011;15275;51.716;14.324;2023-07-22T00:20:54;3.20;;;1.75;;
27939;SDS011;15275;51.716;14.324;2023-07-22T00:23:20;4.13;;;1.95;;
27939;SDS011;15275;51.716;14.324;2023-07-22T00:25:46;2.15;;;1.77;;
27939;SDS011;15275;51.716;14.324;2023-07-22T00:28:12;2.83;;;1.77;;
27939;SDS011;15275;51.716;14.324;2023-07-22T00:30:39;3.13;;;1.88;;
27939;SDS011;15275;51.716;14.324;2023-07-22T00:33:05;2.38;;;1.73;;
27939;SDS011;15275;51.716;14.324;2023-07-22T00:35:31;2.75;;;1.90;;
27939;SDS011;15275;51.716;14.324;2023-07-22T00:37:57;1.95;;;1.70;;
27939;SDS011;15275;51.716;14.324;2023-07-22T00:40:24;2.10;;;1.77;;
27939;SDS011;15275;51.716;14.324;2023-07-22T00:42:50;2.42;;;1.90;;
27939;SDS011;15275;51.716;14.324;2023-07-22T00:45:16;2.67;;;1.90;;
27939;SDS011;15275;51.716;14.324;2023-07-22T00:47:42;2.45;;;2.08;;
27939;SDS011;15275;51.716;14.324;2023-07-22T00:50:08;3.38;;;2.00;;
27939;SDS011;15275;51.716;14.324;2023-07-22T00:52:34;2.15;;;1.90;;
27939;SDS011;15275;51.716;14.324;2023-07-22T00:55:00;2.75;;;1.85;;
27939;SDS011;15275;51.716;14.324;2023-07-22T00:57:27;3.53;;;1.98;;
27939;SDS011;15275;51.716;14.324;2023-07-22T00:59:54;5.75;;;1.80;;
27939;SDS011;15275;51.716;14.324;2023-07-22T01:02:20;3.15;;;2.00;;
27939;SDS011;15275;51.716;14.324;2023-07-22T01:04:46;4.30;;;2.00;;
27939;SDS011;15275;51.716;14.324;2023-07-22T01:07:13;2.53;;;1.80;;
27939;SDS011;15275;51.716;14.324;2023-07-22T01:09:40;6.88;;;2.28;;
27939;SDS011;15275;51.716;14.324;2023-07-22T01:12:08;2.92;;;2.13;;
27939;SDS011;15275;51.716;14.324;2023-07-22T01:14:35;3.42;;;2.13;;
27939;SDS011;15275;51.716;14.324;2023-07-22T01:17:05;3.67;;;2.13;;
27939;SDS011;15275;51.716;14.324;2023-07-22T01:19:33;2.28;;;2.00;;
27939;SDS011;15275;51.716;14.324;2023-07-22T01:22:01;3.25;;;2.13;;
27939;SDS011;15275;51.716;14.324;2023-07-22T01:24:29;2.58;;;2.00;;
27939;SDS011;15275;51.716;14.324;2023-07-22T01:26:55;2.50;;;1.95;;
27939;SDS011;15275;51.716;14.324;2023-07-22T01:29:24;3.80;;;2.35;;
27939;SDS011;15275;51.716;14.324;2023-07-22T01:31:52;3.38;;;1.98;;
27939;SDS011;15275;51.716;14.324;2023-07-22T01:34:20;2.70;;;2.05;;
27939;SDS011;15275;51.716;14.324;2023-07-22T01:36:48;5.43;;;2.10;;
27939;SDS011;15275;51.716;14.324;2023-07-22T01:39:14;4.05;;;2.05;;
27939;SDS011;15275;51.716;14.324;2023-07-22T01:41:41;2.33;;;1.95;;
27939;SDS011;15275;51.716;14.324;2023-07-22T01:44:08;3.30;;;2.20;;
27939;SDS011;15275;51.716;14.324;2023-07-22T01:46:34;2.75;;;2.05;;
27939;SDS011;15275;51.716;14.324;2023-07-22T01:49:01;2.22;;;1.90;;
27939;SDS011;15275;51.716;14.324;2023-07-22T01:51:31;2.70;;;1.77;;
27939;SDS011;15275;51.716;14.324;2023-07-22T01:53:57;2.72;;;1.88;;
27939;SDS011;15275;51.716;14.324;2023-07-22T01:56:23;5.78;;;2.33;;
27939;SDS011;15275;51.716;14.324;2023-07-22T01:58:49;2.40;;;2.10;;
27939;SDS011;15275;51.716;14.324;2023-07-22T02:01:15;4.05;;;2.33;;
27939;SDS011;15275;51.716;14.324;2023-07-22T02:03:44;2.63;;;2.17;;
27939;SDS011;15275;51.716;14.324;2023-07-22T02:06:11;4.22;;;2.15;;
27939;SDS011;15275;51.716;14.324;2023-07-22T02:08:37;4.72;;;2.30;;
27939;SDS011;15275;51.716;14.324;2023-07-22T02:11:04;3.47;;;2.38;;
27939;SDS011;15275;51.716;14.324;2023-07-22T02:13:33;2.53;;;1.83;;
27939;SDS011;15275;51.716;14.324;2023-07-22T02:16:00;3.10;;;2.40;;
27939;SDS011;15275;51.716;14.324;2023-07-22T02:18:28;3.45;;;2.13;;
27939;SDS011;15275;51.716;14.324;2023-07-22T02:20:54;3.38;;;2.10;;
27939;SDS011;15275;51.716;14.324;2023-07-22T02:23:22;3.58;;;2.40;;
27939;SDS011;15275;51.716;14.324;2023-07-22T02:25:49;4.00;;;2.35;;
27939;SDS011;15275;51.716;14.324;2023-07-22T02:28:16;3.17;;;2.50;;
27939;SDS011;15275;51.716;14.324;2023-07-22T02:30:47;2.63;;;2.25;;
27939;SDS011;15275;51.716;14.324;2023-07-22T02:33:14;5.53;;;2.10;;
27939;SDS011;15275;51.716;14.324;2023-07-22T02:35:41;2.10;;;1.90;;
27939;SDS011;15275;51.716;14.324;2023-07-22T02:38:08;4.03;;;2.40;;
27939;SDS011;15275;51.716;14.324;2023-07-22T02:40:37;3.80;;;2.47;;
27939;SDS011;15275;51.716;14.324;2023-07-22T02:43:03;4.28;;;3.30;;
27939;SDS011;15275;51.716;14.324;2023-07-22T02:45:30;5.45;;;2.38;;
27939;SDS011;15275;51.716;14.324;2023-07-22T02:47:55;4.55;;;3.13;;
27939;SDS011;15275;51.716;14.324;2023-07-22T02:50:21;2.60;;;2.40;;
27939;SDS011;15275;51.716;14.324;2023-07-22T02:52:47;8.05;;;3.00;;
27939;SDS011;15275;51.716;14.324;2023-07-22T02:55:14;3.17;;;2.67;;
27939;SDS011;15275;51.716;14.324;2023-07-22T02:57:43;3.83;;;2.70;;
27939;SDS011;15275;51.716;14.324;2023-07-22T03:00:14;3.55;;;2.78;;
27939;SDS011;15275;51.716;14.324;2023-07-22T03:02:51;2.92;;;2.40;;
27939;SDS011;15275;51.716;14.324;2023-07-22T03:05:18;3.88;;;2.65;;
27939;SDS011;15275;51.716;14.324;2023-07-22T03:07:44;3.67;;;2.47;;
27939;SDS011;15275;51.716;14.324;2023-07-22T03:10:10;5.15;;;2.72;;
27939;SDS011;15275;51.716;14.324;2023-07-22T03:12:36;3.50;;;2.58;;
27939;SDS011;15275;51.716;14.324;2023-07-22T03:15:03;3.35;;;2.58;;
27939;SDS011;15275;51.716;14.324;2023-07-22T03:17:30;3.88;;;2.65;;
27939;SDS011;15275;51.716;14.324;2023-07-22T03:19:56;4.25;;;2.58;;
27939;SDS011;15275;51.716;14.324;2023-07-22T03:22:22;5.30;;;2.80;;
27939;SDS011;15275;51.716;14.324;2023-07-22T03:24:47;3.38;;;2.78;;
27939;SDS011;15275;51.716;14.324;2023-07-22T03:27:14;3.25;;;2.67;;
27939;SDS011;15275;51.716;14.324;2023-07-22T03:29:42;5.05;;;2.45;;
27939;SDS011;15275;51.716;14.324;2023-07-22T03:32:08;4.47;;;2.55;;
27939;SDS011;15275;51.716;14.324;2023-07-22T03:34:34;6.05;;;2.85;;
27939;SDS011;15275;51.716;14.324;2023-07-22T03:37:00;6.72;;;2.88;;
27939;SDS011;15275;51.716;14.324;2023-07-22T03:39:26;4.30;;;3.00;;
27939;SDS011;15275;51.716;14.324;2023-07-22T03:41:52;4.70;;;3.00;;
27939;SDS011;15275;51.716;14.324;2023-07-22T03:44:17;5.18;;;3.28;;
27939;SDS011;15275;51.716;14.324;2023-07-22T03:46:43;4.15;;;2.83;;
27939;SDS011;15275;51.716;14.324;2023-07-22T03:49:09;5.95;;;2.90;;
27939;SDS011;15275;51.716;14.324;2023-07-22T03:51:35;3.47;;;2.70;;
27939;SDS011;15275;51.716;14.324;2023-07-22T03:54:01;4.88;;;3.03;;
27939;SDS011;15275;51.716;14.324;2023-07-22T03:56:27;3.58;;;3.00;;
27939;SDS011;15275;51.716;14.324;2023-07-22T03:58:52;3.92;;;3.10;;
27939;SDS011;15275;51.716;14.324;2023-07-22T04:01:18;4.70;;;3.05;;
27939;SDS011;15275;51.716;14.324;2023-07-22T04:03:44;4.90;;;3.22;;
27939;SDS011;15275;51.716;14.324;2023-07-22T04:06:10;4.07;;;2.97;;
27939;SDS011;15275;51.716;14.324;2023-07-22T04:08:36;8.50;;;3.13;;
27939;SDS011;15275;51.716;14.324;2023-07-22T04:11:02;4.57;;;2.97;;
27939;SDS011;15275;51.716;14.324;2023-07-22T04:13:29;3.63;;;2.60;;
27939;SDS011;15275;51.716;14.324;2023-07-22T04:15:55;7.68;;;3.70;;
27939;SDS011;15275;51.716;14.324;2023-07-22T04:18:20;4.32;;;3.13;;
27939;SDS011;15275;51.716;14.324;2023-07-22T04:20:46;4.65;;;3.22;;
27939;SDS011;15275;51.716;14.324;2023-07-22T04:23:15;4.07;;;3.08;;
27939;SDS011;15275;51.716;14.324;2023-07-22T04:25:44;12.00;;;2.88;;
27939;SDS011;15275;51.716;14.324;2023-07-22T04:28:10;4.57;;;2.97;;
27939;SDS011;15275;51.716;14.324;2023-07-22T04:30:37;5.38;;;2.65;;
27939;SDS011;15275;51.716;14.324;2023-07-22T04:33:05;4.35;;;2.97;;
27939;SDS011;15275;51.716;14.324;2023-07-22T04:35:37;6.05;;;2.97;;
27939;SDS011;15275;51.716;14.324;2023-07-22T04:38:06;4.28;;;2.97;;
27939;SDS011;15275;51.716;14.324;2023-07-22T04:40:32;4.57;;;3.13;;
27939;SDS011;15275;51.716;14.324;2023-07-22T04:42:58;4.82;;;2.72;;
27939;SDS011;15275;51.716;14.324;2023-07-22T04:45:23;4.60;;;3.00;;
27939;SDS011;15275;51.716;14.324;2023-07-22T04:47:50;4.75;;;3.20;;
27939;SDS011;15275;51.716;14.324;2023-07-22T04:50:16;6.38;;;2.90;;
27939;SDS011;15275;51.716;14.324;2023-07-22T04:52:43;5.50;;;3.47;;
27939;SDS011;15275;51.716;14.324;2023-07-22T04:55:11;3.35;;;2.90;;
27939;SDS011;15275;51.716;14.324;2023-07-22T04:57:38;4.40;;;2.88;;
27939;SDS011;15275;51.716;14.324;2023-07-22T05:00:06;5.45;;;3.10;;
27939;SDS011;15275;51.716;14.324;2023-07-22T05:02:39;7.70;;;3.33;;
27939;SDS011;15275;51.716;14.324;2023-07-22T05:05:06;5.57;;;3.08;;
27939;SDS011;15275;51.716;14.324;2023-07-22T05:07:32;3.58;;;2.85;;
27939;SDS011;15275;51.716;14.324;2023-07-22T05:09:58;4.65;;;2.85;;
27939;SDS011;15275;51.716;14.324;2023-07-22T05:12:24;4.45;;;2.88;;
27939;SDS011;15275;51.716;14.324;2023-07-22T05:14:49;6.60;;;3.30;;
27939;SDS011;15275;51.716;14.324;2023-07-22T05:17:15;7.63;;;3.40;;
27939;SDS011;15275;51.716;14.324;2023-07-22T05:19:41;3.88;;;3.15;;
27939;SDS011;15275;51.716;14.324;2023-07-22T05:22:07;3.85;;;2.83;;
27939;SDS011;15275;51.716;14.324;2023-07-22T05:24:33;5.43;;;3.30;;
27939;SDS011;15275;51.716;14.324;2023-07-22T05:26:59;4.10;;;3.17;;
27939;SDS011;15275;51.716;14.324;2023-07-22T05:29:24;4.35;;;2.58;;
27939;SDS011;15275;51.716;14.324;2023-07-22T05:31:50;4.53;;;2.67;;
27939;SDS011;15275;51.716;14.324;2023-07-22T05:34:16;4.20;;;3.03;;
27939;SDS011;15275;51.716;14.324;2023-07-22T05:36:42;5.57;;;3.20;;
27939;SDS011;15275;51.716;14.324;2023-07-22T05:39:08;4.28;;;2.75;;
27939;SDS011;15275;51.716;14.324;2023-07-22T05:41:34;6.47;;;3.83;;
27939;SDS011;15275;51.716;14.324;2023-07-22T05:44:00;5.50;;;3.40;;
27939;SDS011;15275;51.716;14.324;2023-07-22T05:46:26;5.70;;;3.33;;
27939;SDS011;15275;51.716;14.324;2023-07-22T05:48:52;5.40;;;3.53;;
27939;SDS011;15275;51.716;14.324;2023-07-22T05:51:18;5.35;;;3.13;;
27939;SDS011;15275;51.716;14.324;2023-07-22T05:53:44;3.58;;;3.03;;
27939;SDS011;15275;51.716;14.324;2023-07-22T05:56:10;6.72;;;3.65;;
27939;SDS011;15275;51.716;14.324;2023-07-22T05:58:36;6.35;;;3.50;;
27939;SDS011;15275;51.716;14.324;2023-07-22T06:01:02;5.20;;;3.42;;
27939;SDS011;15275;51.716;14.324;2023-07-22T06:03:28;6.15;;;3.50;;
27939;SDS011;15275;51.716;14.324;2023-07-22T06:05:54;6.78;;;3.47;;
27939;SDS011;15275;51.716;14.324;2023-07-22T06:08:20;6.65;;;3.15;;
27939;SDS011;15275;51.716;14.324;2023-07-22T06:10:45;7.65;;;3.58;;
27939;SDS011;15275;51.716;14.324;2023-07-22T06:13:11;5.82;;;3.72;;
27939;SDS011;15275;51.716;14.324;2023-07-22T06:15:37;10.07;;;3.97;;
27939;SDS011;15275;51.716;14.324;2023-07-22T06:18:03;5.60;;;3.70;;
27939;SDS011;15275;51.716;14.324;2023-07-22T06:20:33;5.90;;;3.40;;
27939;SDS011;15275;51.716;14.324;2023-07-22T06:23:01;3.40;;;2.92;;
27939;SDS011;15275;51.716;14.324;2023-07-22T06:25:27;5.05;;;3.40;;
27939;SDS011;15275;51.716;14.324;2023-07-22T06:27:53;6.55;;;3.88;;
27939;SDS011;15275;51.716;14.324;2023-07-22T06:30:19;4.75;;;3.80;;
27939;SDS011;15275;51.716;14.324;2023-07-22T06:32:45;5.07;;;4.07;;
27939;SDS011;15275;51.716;14.324;2023-07-22T06:35:11;5.85;;;4.15;;
27939;SDS011;15275;51.716;14.324;2023-07-22T06:37:37;7.47;;;3.63;;
27939;SDS011;15275;51.716;14.324;2023-07-22T06:40:04;5.47;;;3.33;;
27939;SDS011;15275;51.716;14.324;2023-07-22T06:42:31;3.88;;;2.97;;
27939;SDS011;15275;51.716;14.324;2023-07-22T06:44:57;4.47;;;3.38;;
27939;SDS011;15275;51.716;14.324;2023-07-22T06:47:23;4.80;;;3.65;;
27939;SDS011;15275;51.716;14.324;2023-07-22T06:49:49;4.78;;;3.67;;
27939;SDS011;15275;51.716;14.324;2023-07-22T06:52:15;6.32;;;3.28;;
27939;SDS011;15275;51.716;14.324;2023-07-22T06:54:42;6.15;;;3.15;;
27939;SDS011;15275;51.716;14.324;2023-07-22T06:57:08;5.47;;;3.40;;
27939;SDS011;15275;51.716;14.324;2023-07-22T06:59:34;6.20;;;3.88;;
27939;SDS011;15275;51.716;14.324;2023-07-22T07:02:00;4.70;;;3.55;;
27939;SDS011;15275;51.716;14.324;2023-07-22T07:04:26;4.65;;;3.38;;
27939;SDS011;15275;51.716;14.324;2023-07-22T07:06:52;3.97;;;3.50;;
27939;SDS011;15275;51.716;14.324;2023-07-22T07:09:18;6.97;;;3.60;;
27939;SDS011;15275;51.716;14.324;2023-07-22T07:11:44;8.43;;;4.00;;
27939;SDS011;15275;51.716;14.324;2023-07-22T07:14:10;5.97;;;3.55;;
27939;SDS011;15275;51.716;14.324;2023-07-22T07:16:36;6.75;;;3.78;;
27939;SDS011;15275;51.716;14.324;2023-07-22T07:19:02;5.78;;;4.07;;
27939;SDS011;15275;51.716;14.324;2023-07-22T07:21:28;6.85;;;4.03;;
27939;SDS011;15275;51.716;14.324;2023-07-22T07:23:54;7.20;;;3.47;;
27939;SDS011;15275;51.716;14.324;2023-07-22T07:26:20;4.20;;;3.67;;
27939;SDS011;15275;51.716;14.324;2023-07-22T07:28:47;4.05;;;3.38;;
27939;SDS011;15275;51.716;14.324;2023-07-22T07:31:16;4.72;;;3.05;;
27939;SDS011;15275;51.716;14.324;2023-07-22T07:33:42;5.78;;;3.83;;
27939;SDS011;15275;51.716;14.324;2023-07-22T07:36:08;5.10;;;3.65;;
27939;SDS011;15275;51.716;14.324;2023-07-22T07:38:34;4.82;;;3.88;;
27939;SDS011;15275;51.716;14.324;2023-07-22T07:41:02;7.80;;;3.65;;
27939;SDS011;15275;51.716;14.324;2023-07-22T07:43:36;4.93;;;4.15;;
27939;SDS011;15275;51.716;14.324;2023-07-22T07:46:12;7.57;;;4.20;;
27939;SDS011;15275;51.716;14.324;2023-07-22T07:48:39;4.63;;;3.63;;
27939;SDS011;15275;51.716;14.324;2023-07-22T07:51:05;6.32;;;3.85;;
27939;SDS011;15275;51.716;14.324;2023-07-22T07:53:31;6.13;;;4.30;;
27939;SDS011;15275;51.716;14.324;2023-07-22T07:55:57;6.90;;;4.50;;
27939;SDS011;15275;51.716;14.324;2023-07-22T07:58:22;8.35;;;4.50;;
27939;SDS011;15275;51.716;14.324;2023-07-22T08:00:48;5.32;;;3.80;;
27939;SDS011;15275;51.716;14.324;2023-07-22T08:03:14;5.80;;;4.40;;
27939;SDS011;15275;51.716;14.324;2023-07-22T08:05:40;6.80;;;4.05;;
27939;SDS011;15275;51.716;14.324;2023-07-22T08:08:06;6.57;;;4.95;;
27939;SDS011;15275;51.716;14.324;2023-07-22T08:10:32;7.25;;;4.25;;
27939;SDS011;15275;51.716;14.324;2023-07-22T08:12:57;7.22;;;4.13;;
27939;SDS011;15275;51.716;14.324;2023-07-22T08:15:24;6.60;;;4.38;;
27939;SDS011;15275;51.716;14.324;2023-07-22T08:17:50;5.97;;;4.20;;
27939;SDS011;15275;51.716;14.324;2023-07-22T08:20:16;7.80;;;5.00;;
27939;SDS011;15275;51.716;14.324;2023-07-22T08:22:42;4.78;;;4.07;;
27939;SDS011;15275;51.716;14.324;2023-07-22T08:25:08;7.20;;;4.22;;
27939;SDS011;15275;51.716;14.324;2023-07-22T08:27:34;5.53;;;4.22;;
27939;SDS011;15275;51.716;14.324;2023-07-22T08:29:59;6.50;;;4.18;;
27939;SDS011;15275;51.716;14.324;2023-07-22T08:32:25;7.25;;;4.40;;
27939;SDS011;15275;51.716;14.324;2023-07-22T08:34:51;5.32;;;3.97;;
27939;SDS011;15275;51.716;14.324;2023-07-22T08:37:17;5.68;;;3.83;;
27939;SDS011;15275;51.716;14.324;2023-07-22T08:39:43;5.13;;;4.05;;
27939;SDS011;15275;51.716;14.324;2023-07-22T08:42:09;6.35;;;4.00;;
27939;SDS011;15275;51.716;14.324;2023-07-22T08:44:38;5.88;;;3.60;;
27939;SDS011;15275;51.716;14.324;2023-07-22T08:47:09;6.03;;;3.55;;
27939;SDS011;15275;51.716;14.324;2023-07-22T08:49:41;5.43;;;3.95;;
27939;SDS011;15275;51.716;14.324;2023-07-22T08:52:16;5.32;;;3.65;;
27939;SDS011;15275;51.716;14.324;2023-07-22T08:54:43;4.57;;;3.08;;
27939;SDS011;15275;51.716;14.324;2023-07-22T08:57:11;5.28;;;3.30;;
27939;SDS011;15275;51.716;14.324;2023-07-22T08:59:37;4.90;;;3.47;;
27939;SDS011;15275;51.716;14.324;2023-07-22T09:02:03;3.65;;;2.78;;
27939;SDS011;15275;51.716;14.324;2023-07-22T09:04:30;10.20;;;3.17;;
27939;SDS011;15275;51.716;14.324;2023-07-22T09:06:57;7.35;;;3.53;;
27939;SDS011;15275;51.716;14.324;2023-07-22T09:09:24;4.30;;;3.00;;
27939;SDS011;15275;51.716;14.324;2023-07-22T09:11:51;4.68;;;2.90;;
27939;SDS011;15275;51.716;14.324;2023-07-22T09:14:18;8.57;;;3.25;;
27939;SDS011;15275;51.716;14.324;2023-07-22T09:16:45;3.10;;;2.80;;
27939;SDS011;15275;51.716;14.324;2023-07-22T09:19:12;4.45;;;2.97;;
27939;SDS011;15275;51.716;14.324;2023-07-22T09:21:38;3.50;;;2.58;;
27939;SDS011;15275;51.716;14.324;2023-07-22T09:24:19;3.88;;;2.67;;
27939;SDS011;15275;51.716;14.324;2023-07-22T09:26:49;2.83;;;2.30;;
27939;SDS011;15275;51.716;14.324;2023-07-22T09:29:16;7.13;;;2.63;;
27939;SDS011;15275;51.716;14.324;2023-07-22T09:31:49;4.18;;;2.33;;
27939;SDS011;15275;51.716;14.324;2023-07-22T09:34:17;3.63;;;2.70;;
27939;SDS011;15275;51.716;14.324;2023-07-22T09:39:20;4.03;;;2.28;;
27939;SDS011;15275;51.716;14.324;2023-07-22T09:41:47;3.45;;;2.65;;
27939;SDS011;15275;51.716;14.324;2023-07-22T09:44:14;6.78;;;2.80;;
27939;SDS011;15275;51.716;14.324;2023-07-22T09:46:40;3.92;;;2.50;;
27939;SDS011;15275;51.716;14.324;2023-07-22T09:49:09;2.75;;;2.38;;
27939;SDS011;15275;51.716;14.324;2023-07-22T09:51:40;4.60;;;2.53;;
27939;SDS011;15275;51.716;14.324;2023-07-22T09:54:06;10.85;;;2.38;;
27939;SDS011;15275;51.716;14.324;2023-07-22T09:56:43;5.18;;;2.53;;
27939;SDS011;15275;51.716;14.324;2023-07-22T09:59:12;4.40;;;2.50;;
27939;SDS011;15275;51.716;14.324;2023-07-22T10:01:39;4.38;;;2.65;;
27939;SDS011;15275;51.716;14.324;2023-07-22T10:04:06;5.85;;;2.92;;
27939;SDS011;15275;51.716;14.324;2023-07-22T10:06:32;4.72;;;2.38;;
27939;SDS011;15275;51.716;14.324;2023-07-22T10:09:03;3.55;;;2.60;;
27939;SDS011;15275;51.716;14.324;2023-07-22T10:14:03;3.22;;;2.35;;
27939;SDS011;15275;51.716;14.324;2023-07-22T10:16:30;3.00;;;2.42;;
27939;SDS011;15275;51.716;14.324;2023-07-22T10:18:57;3.55;;;2.80;;
27939;SDS011;15275;51.716;14.324;2023-07-22T10:21:24;3.13;;;2.63;;
27939;SDS011;15275;51.716;14.324;2023-07-22T10:23:51;3.03;;;2.67;;
27939;SDS011;15275;51.716;14.324;2023-07-22T10:26:18;4.45;;;2.47;;
27939;SDS011;15275;51.716;14.324;2023-07-22T10:28:45;3.60;;;2.95;;
27939;SDS011;15275;51.716;14.324;2023-07-22T10:31:13;2.95;;;2.60;;
27939;SDS011;15275;51.716;14.324;2023-07-22T10:33:43;5.68;;;2.83;;
27939;SDS011;15275;51.716;14.324;2023-07-22T10:36:13;3.70;;;3.00;;
27939;SDS011;15275;51.716;14.324;2023-07-22T10:38:43;5.18;;;2.95;;
27939;SDS011;15275;51.716;14.324;2023-07-22T10:41:20;3.83;;;2.80;;
27939;SDS011;15275;51.716;14.324;2023-07-22T10:43:56;4.38;;;2.75;;
27939;SDS011;15275;51.716;14.324;2023-07-22T10:46:35;4.45;;;3.28;;
27939;SDS011;15275;51.716;14.324;2023-07-22T10:51:47;5.72;;;3.72;;
27939;SDS011;15275;51.716;14.324;2023-07-22T10:54:15;3.97;;;3.33;;
27939;SDS011;15275;51.716;14.324;2023-07-22T10:57:43;5.75;;;3.08;;
27939;SDS011;15275;51.716;14.324;2023-07-22T10:59:51;3.85;;;2.85;;
27939;SDS011;15275;51.716;14.324;2023-07-22T11:02:27;3.72;;;3.17;;
27939;SDS011;15275;51.716;14.324;2023-07-22T11:05:02;4.38;;;3.60;;
27939;SDS011;15275;51.716;14.324;2023-07-22T11:07:34;3.60;;;3.30;;
27939;SDS011;15275;51.716;14.324;2023-07-22T11:10:13;3.78;;;3.33;;
27939;SDS011;15275;51.716;14.324;2023-07-22T11:12:42;4.40;;;3.67;;
27939;SDS011;15275;51.716;14.324;2023-07-22T11:15:09;3.60;;;3.30;;
27939;SDS011;15275;51.716;14.324;2023-07-22T11:17:36;4.30;;;3.13;;
27939;SDS011;15275;51.716;14.324;2023-07-22T11:20:03;4.15;;;3.35;;
27939;SDS011;15275;51.716;14.324;2023-07-22T11:22:29;5.88;;;3.55;;
27939;SDS011;15275;51.716;14.324;2023-07-22T11:24:55;5.05;;;3.65;;
27939;SDS011;15275;51.716;14.324;2023-07-22T11:27:23;4.68;;;3.72;;
27939;SDS011;15275;51.716;14.324;2023-07-22T11:29:49;7.45;;;3.80;;
27939;SDS011;15275;51.716;14.324;2023-07-22T11:32:16;5.15;;;3.92;;
27939;SDS011;15275;51.716;14.324;2023-07-22T11:34:47;4.22;;;3.40;;
27939;SDS011;15275;51.716;14.324;2023-07-22T11:37:13;4.43;;;3.15;;
27939;SDS011;15275;51.716;14.324;2023-07-22T11:39:40;4.20;;;3.80;;
27939;SDS011;15275;51.716;14.324;2023-07-22T11:42:07;5.00;;;3.78;;
27939;SDS011;15275;51.716;14.324;2023-07-22T11:44:33;4.35;;;3.80;;
27939;SDS011;15275;51.716;14.324;2023-07-22T11:47:04;5.55;;;3.97;;
27939;SDS011;15275;51.716;14.324;2023-07-22T11:49:41;4.25;;;3.60;;
27939;SDS011;15275;51.716;14.324;2023-07-22T11:52:16;4.38;;;3.97;;
27939;SDS011;15275;51.716;14.324;2023-07-22T11:54:43;4.75;;;3.70;;
27939;SDS011;15275;51.716;14.324;2023-07-22T11:57:14;4.63;;;3.17;;
27939;SDS011;15275;51.716;14.324;2023-07-22T11:59:49;5.15;;;3.70;;
27939;SDS011;15275;51.716;14.324;2023-07-22T12:02:22;5.45;;;4.30;;
27939;SDS011;15275;51.716;14.324;2023-07-22T12:05:03;11.50;;;4.60;;
27939;SDS011;15275;51.716;14.324;2023-07-22T12:07:31;4.40;;;4.00;;
27939;SDS011;15275;51.716;14.324;2023-07-22T12:10:00;6.75;;;4.57;;
27939;SDS011;15275;51.716;14.324;2023-07-22T12:15:11;7.55;;;4.63;;
27939;SDS011;15275;51.716;14.324;2023-07-22T12:18:01;4.90;;;4.38;;
27939;SDS011;15275;51.716;14.324;2023-07-22T12:20:28;7.22;;;4.88;;
27939;SDS011;15275;51.716;14.324;2023-07-22T12:22:57;6.53;;;4.82;;
27939;SDS011;15275;51.716;14.324;2023-07-22T12:25:23;5.55;;;4.32;;
27939;SDS011;15275;51.716;14.324;2023-07-22T12:27:49;5.47;;;4.25;;
27939;SDS011;15275;51.716;14.324;2023-07-22T12:30:16;5.40;;;3.92;;
27939;SDS011;15275;51.716;14.324;2023-07-22T12:32:42;4.78;;;3.50;;
27939;SDS011;15275;51.716;14.324;2023-07-22T12:35:08;5.72;;;4.60;;
27939;SDS011;15275;51.716;14.324;2023-07-22T12:37:35;8.70;;;4.85;;
27939;SDS011;15275;51.716;14.324;2023-07-22T12:40:01;6.35;;;4.95;;
27939;SDS011;15275;51.716;14.324;2023-07-22T12:42:33;6.07;;;4.45;;
27939;SDS011;15275;51.716;14.324;2023-07-22T12:45:00;5.03;;;4.45;;
27939;SDS011;15275;51.716;14.324;2023-07-22T12:47:27;6.15;;;4.70;;
27939;SDS011;15275;51.716;14.324;2023-07-22T12:49:53;6.35;;;4.45;;
27939;SDS011;15275;51.716;14.324;2023-07-22T12:52:19;5.28;;;4.25;;
27939;SDS011;15275;51.716;14.324;2023-07-22T12:54:45;4.50;;;4.05;;
27939;SDS011;15275;51.716;14.324;2023-07-22T12:57:11;5.15;;;4.32;;
27939;SDS011;15275;51.716;14.324;2023-07-22T12:59:36;6.15;;;5.13;;
27939;SDS011;15275;51.716;14.324;2023-07-22T13:02:02;5.10;;;4.63;;
27939;SDS011;15275;51.716;14.324;2023-07-22T13:04:28;5.30;;;4.72;;
27939;SDS011;15275;51.716;14.324;2023-07-22T13:06:54;6.93;;;4.90;;
27939;SDS011;15275;51.716;14.324;2023-07-22T13:09:20;5.43;;;4.85;;
27939;SDS011;15275;51.716;14.324;2023-07-22T13:11:46;4.80;;;4.30;;
27939;SDS011;15275;51.716;14.324;2023-07-22T13:14:12;6.00;;;4.55;;
27939;SDS011;15275;51.716;14.324;2023-07-22T13:16:39;6.32;;;4.30;;
27939;SDS011;15275;51.716;14.324;2023-07-22T13:19:05;5.88;;;3.92;;
27939;SDS011;15275;51.716;14.324;2023-07-22T13:21:30;5.03;;;4.30;;
27939;SDS011;15275;51.716;14.324;2023-07-22T13:23:56;4.95;;;4.45;;
27939;SDS011;15275;51.716;14.324;2023-07-22T13:26:22;5.15;;;4.13;;
27939;SDS011;15275;51.716;14.324;2023-07-22T13:28:48;6.28;;;3.95;;
27939;SDS011;15275;51.716;14.324;2023-07-22T13:31:14;6.50;;;4.72;;
27939;SDS011;15275;51.716;14.324;2023-07-22T13:33:40;9.88;;;3.65;;
27939;SDS011;15275;51.716;14.324;2023-07-22T13:36:06;4.53;;;3.60;;
27939;SDS011;15275;51.716;14.324;2023-07-22T13:38:32;4.60;;;3.42;;
27939;SDS011;15275;51.716;14.324;2023-07-22T13:40:58;4.70;;;3.70;;
27939;SDS011;15275;51.716;14.324;2023-07-22T13:43:23;4.78;;;3.50;;
27939;SDS011;15275;51.716;14.324;2023-07-22T13:45:50;3.70;;;2.92;;
27939;SDS011;15275;51.716;14.324;2023-07-22T13:48:16;3.97;;;3.38;;
27939;SDS011;15275;51.716;14.324;2023-07-22T13:50:41;3.42;;;3.13;;
27939;SDS011;15275;51.716;14.324;2023-07-22T13:53:07;4.28;;;3.17;;
27939;SDS011;15275;51.716;14.324;2023-07-22T13:55:33;3.83;;;3.47;;
27939;SDS011;15275;51.716;14.324;2023-07-22T13:57:59;3.78;;;3.00;;
27939;SDS011;15275;51.716;14.324;2023-07-22T14:00:25;5.20;;;4.20;;
27939;SDS011;15275;51.716;14.324;2023-07-22T14:02:51;3.85;;;3.42;;
27939;SDS011;15275;51.716;14.324;2023-07-22T14:05:16;5.85;;;3.80;;
27939;SDS011;15275;51.716;14.324;2023-07-22T14:07:42;8.88;;;3.50;;
27939;SDS011;15275;51.716;14.324;2023-07-22T14:10:08;3.63;;;3.05;;
27939;SDS011;15275;51.716;14.324;2023-07-22T14:12:35;6.10;;;2.78;;
27939;SDS011;15275;51.716;14.324;2023-07-22T14:15:01;3.15;;;2.50;;
27939;SDS011;15275;51.716;14.324;2023-07-22T14:17:29;4.30;;;2.90;;
27939;SDS011;15275;51.716;14.324;2023-07-22T14:19:57;3.33;;;2.78;;
27939;SDS011;15275;51.716;14.324;2023-07-22T14:22:24;2.97;;;2.67;;
27939;SDS011;15275;51.716;14.324;2023-07-22T14:24:50;2.88;;;2.58;;
27939;SDS011;15275;51.716;14.324;2023-07-22T14:27:16;5.45;;;3.25;;
27939;SDS011;15275;51.716;14.324;2023-07-22T14:29:41;3.05;;;2.72;;
27939;SDS011;15275;51.716;14.324;2023-07-22T14:32:07;3.55;;;3.13;;
27939;SDS011;15275;51.716;14.324;2023-07-22T14:34:34;3.08;;;2.65;;
27939;SDS011;15275;51.716;14.324;2023-07-22T14:37:00;2.72;;;2.20;;
27939;SDS011;15275;51.716;14.324;2023-07-22T14:39:26;3.42;;;2.70;;
27939;SDS011;15275;51.716;14.324;2023-07-22T14:41:51;5.22;;;2.38;;
27939;SDS011;15275;51.716;14.324;2023-07-22T14:44:18;2.95;;;2.60;;